createdAt,value
2024-03-26T00:02:12.226Z,15.40
2024-03-26T00:04:42.085Z,15.10
2024-03-26T00:07:08.294Z,18.10
2024-03-26T00:09:37.980Z,17.20
2024-03-26T00:12:04.733Z,17.80
2024-03-26T00:14:33.431Z,15.50
2024-03-26T00:17:02.909Z,15.50
2024-03-26T00:19:29.952Z,15.70
2024-03-26T00:21:57.086Z,14.40
2024-03-26T00:24:24.384Z,14.00
2024-03-26T00:26:50.998Z,9.90
2024-03-26T00:29:17.291Z,10.40
2024-03-26T00:31:43.434Z,12.60
2024-03-26T00:34:09.790Z,14.40
2024-03-26T00:36:36.026Z,11.50
2024-03-26T00:39:03.068Z,11.20
2024-03-26T00:41:29.380Z,9.00
2024-03-26T00:43:55.574Z,7.90
2024-03-26T00:46:22.054Z,7.50
2024-03-26T00:48:48.241Z,7.70
2024-03-26T00:51:14.479Z,8.70
2024-03-26T00:53:40.883Z,9.80
2024-03-26T00:56:09.750Z,7.70
2024-03-26T00:58:36.072Z,7.00
2024-03-26T01:01:09.535Z,8.00
2024-03-26T01:03:36.395Z,9.90
2024-03-26T01:06:03.442Z,8.90
2024-03-26T01:08:30.003Z,9.20
2024-03-26T01:10:56.497Z,10.10
2024-03-26T01:13:23.592Z,9.50
2024-03-26T01:15:52.768Z,9.60
2024-03-26T01:18:19.077Z,10.20
2024-03-26T01:20:45.417Z,12.30
2024-03-26T01:23:14.926Z,12.10
2024-03-26T01:25:41.097Z,10.40
2024-03-26T01:28:07.215Z,12.00
2024-03-26T01:30:35.384Z,10.80
2024-03-26T01:33:01.550Z,10.40
2024-03-26T01:35:30.922Z,11.80
2024-03-26T01:37:57.213Z,13.40
2024-03-26T01:40:24.331Z,12.10
2024-03-26T01:42:51.553Z,11.40
2024-03-26T01:45:18.055Z,11.70
2024-03-26T01:47:45.830Z,12.60
2024-03-26T01:50:18.049Z,11.40
2024-03-26T01:52:45.973Z,11.60
2024-03-26T01:55:13.525Z,11.90
2024-03-26T01:57:40.130Z,13.80
2024-03-26T02:00:10.078Z,11.40
2024-03-26T02:02:39.202Z,13.40
2024-03-26T02:05:06.400Z,12.70
2024-03-26T02:07:33.162Z,13.80
2024-03-26T02:09:59.814Z,11.80
2024-03-26T02:12:28.611Z,11.60
2024-03-26T02:14:57.509Z,12.30
2024-03-26T02:17:23.859Z,11.90
2024-03-26T02:19:50.373Z,11.10
2024-03-26T02:22:16.612Z,12.00
2024-03-26T02:24:42.958Z,12.40
2024-03-26T02:27:09.231Z,12.20
2024-03-26T02:29:38.747Z,10.90
2024-03-26T02:32:05.274Z,14.90
2024-03-26T02:34:31.500Z,13.00
2024-03-26T02:36:57.645Z,12.20
2024-03-26T02:39:23.865Z,11.90
2024-03-26T02:41:50.846Z,11.80
2024-03-26T02:44:17.031Z,11.50
2024-03-26T02:46:43.545Z,11.70
2024-03-26T02:49:09.795Z,13.00
2024-03-26T02:51:36.137Z,11.90
2024-03-26T02:54:07.327Z,12.50
2024-03-26T02:56:33.602Z,14.50
2024-03-26T02:59:00.116Z,13.00
2024-03-26T03:01:26.439Z,13.00
2024-03-26T03:03:52.528Z,12.40
2024-03-26T03:06:18.651Z,12.70
2024-03-26T03:08:44.818Z,12.00
2024-03-26T03:11:11.079Z,14.20
2024-03-26T03:13:37.226Z,13.20
2024-03-26T03:16:06.887Z,13.00
2024-03-26T03:18:33.106Z,11.80
2024-03-26T03:20:59.738Z,12.10
2024-03-26T03:23:26.813Z,13.30
2024-03-26T03:25:56.705Z,15.20
2024-03-26T03:28:23.787Z,12.40
2024-03-26T03:30:50.132Z,13.20
2024-03-26T03:33:16.521Z,11.50
2024-03-26T03:35:43.112Z,12.60
2024-03-26T03:38:09.577Z,12.00
2024-03-26T03:40:36.742Z,10.60
2024-03-26T03:43:03.359Z,11.40
2024-03-26T03:45:31.911Z,11.60
2024-03-26T03:47:58.050Z,10.70
2024-03-26T03:50:24.420Z,8.80
2024-03-26T03:52:50.764Z,9.20
2024-03-26T03:55:17.053Z,10.80
2024-03-26T03:57:43.590Z,11.80
2024-03-26T04:00:11.045Z,12.70
2024-03-26T04:02:39.951Z,10.30
2024-03-26T04:05:06.620Z,14.30
2024-03-26T04:07:38.247Z,12.90
2024-03-26T04:10:12.027Z,12.90
2024-03-26T04:12:38.373Z,11.40
2024-03-26T04:15:08.162Z,12.50
2024-03-26T04:17:38.127Z,13.70
2024-03-26T04:20:05.529Z,16.30
2024-03-26T04:22:32.222Z,12.90
2024-03-26T04:24:58.552Z,14.10
2024-03-26T04:27:29.930Z,14.20
2024-03-26T04:29:56.312Z,16.20
2024-03-26T04:32:22.685Z,16.20
2024-03-26T04:34:48.890Z,14.70
2024-03-26T04:37:15.289Z,15.70
2024-03-26T04:39:41.365Z,17.50
2024-03-26T04:42:09.856Z,16.90
2024-03-26T04:44:35.955Z,14.20
2024-03-26T04:47:04.573Z,14.30
2024-03-26T04:49:30.980Z,14.20
2024-03-26T04:51:57.220Z,13.30
2024-03-26T04:54:23.431Z,15.10
2024-03-26T04:56:49.926Z,13.00
2024-03-26T04:59:16.288Z,15.10
2024-03-26T05:01:42.708Z,14.60
2024-03-26T05:04:08.960Z,13.30
2024-03-26T05:06:35.441Z,15.10
2024-03-26T05:09:01.813Z,13.70
2024-03-26T05:11:33.690Z,13.80
2024-03-26T05:14:00.241Z,13.90
2024-03-26T05:16:26.771Z,14.20
2024-03-26T05:18:53.379Z,17.10
2024-03-26T05:21:19.520Z,15.00
2024-03-26T05:23:46.896Z,15.50
2024-03-26T05:26:13.261Z,13.20
2024-03-26T05:28:39.647Z,12.40
2024-03-26T05:31:17.621Z,13.80
2024-03-26T05:33:46.119Z,14.30
2024-03-26T05:36:12.715Z,13.30
2024-03-26T05:38:39.412Z,13.30
2024-03-26T05:41:05.914Z,11.40
2024-03-26T05:43:32.093Z,11.90
2024-03-26T05:45:58.329Z,13.10
2024-03-26T05:48:24.846Z,11.70
2024-03-26T05:50:52.679Z,11.00
2024-03-26T05:53:19.966Z,10.50
2024-03-26T05:55:46.716Z,10.70
2024-03-26T05:58:13.997Z,9.90
2024-03-26T06:00:40.792Z,9.60
2024-03-26T06:03:07.057Z,9.80
2024-03-26T06:05:33.294Z,19.40
2024-03-26T06:07:59.504Z,12.00
2024-03-26T06:10:28.035Z,15.10
2024-03-26T06:12:54.789Z,11.40
2024-03-26T06:15:21.060Z,13.30
2024-03-26T06:17:50.267Z,12.60
2024-03-26T06:20:16.648Z,13.70
2024-03-26T06:22:46.182Z,12.50
2024-03-26T06:25:12.603Z,16.00
2024-03-26T06:27:38.858Z,15.80
2024-03-26T06:30:06.400Z,14.30
2024-03-26T06:32:33.006Z,14.90
2024-03-26T06:34:59.382Z,15.90
2024-03-26T06:37:28.499Z,13.90
2024-03-26T06:39:54.637Z,13.10
2024-03-26T06:42:21.171Z,12.80
2024-03-26T06:44:47.607Z,13.20
2024-03-26T06:47:13.760Z,13.30
2024-03-26T06:49:43.236Z,12.90
2024-03-26T06:52:14.504Z,12.60
2024-03-26T06:54:41.999Z,12.70
2024-03-26T06:57:08.904Z,12.40
2024-03-26T06:59:36.569Z,11.00
2024-03-26T07:02:04.675Z,12.40
2024-03-26T07:04:32.334Z,12.40
2024-03-26T07:07:06.382Z,10.60
2024-03-26T07:09:32.778Z,10.00
2024-03-26T07:12:01.655Z,11.00
2024-03-26T07:14:45.370Z,10.70
2024-03-26T07:17:27.406Z,8.60
2024-03-26T07:19:53.693Z,8.00
2024-03-26T07:22:20.327Z,9.50
2024-03-26T07:24:46.531Z,9.60
2024-03-26T07:27:15.968Z,8.60
2024-03-26T07:29:43.170Z,9.50
2024-03-26T07:32:09.573Z,9.30
2024-03-26T07:34:37.528Z,10.50
2024-03-26T07:37:11.622Z,10.30
2024-03-26T07:39:40.612Z,9.60
2024-03-26T07:42:07.095Z,10.70
2024-03-26T07:44:40.777Z,9.40
2024-03-26T07:47:07.646Z,10.70
2024-03-26T07:49:44.026Z,10.50
2024-03-26T07:52:10.565Z,9.60
2024-03-26T07:54:40.067Z,8.60
2024-03-26T07:57:07.582Z,9.60
2024-03-26T07:59:34.081Z,8.60
2024-03-26T08:02:03.748Z,8.60
2024-03-26T08:04:30.204Z,8.70
2024-03-26T08:06:59.114Z,8.30
2024-03-26T08:09:28.054Z,7.50
2024-03-26T08:11:57.306Z,7.40
2024-03-26T08:14:33.875Z,7.30
2024-03-26T08:17:00.273Z,4.60
2024-03-26T08:19:26.750Z,5.20
2024-03-26T08:21:53.221Z,5.40
2024-03-26T08:24:19.490Z,5.20
2024-03-26T08:26:45.813Z,5.70
2024-03-26T08:29:14.660Z,6.70
2024-03-26T08:31:40.918Z,6.60
2024-03-26T08:34:07.102Z,5.60
2024-03-26T08:36:33.670Z,5.90
2024-03-26T08:39:02.477Z,5.30
2024-03-26T08:41:29.045Z,6.20
2024-03-26T08:43:55.544Z,4.40
2024-03-26T08:46:21.817Z,4.00
2024-03-26T08:48:51.638Z,3.80
2024-03-26T08:51:18.113Z,4.00
2024-03-26T08:53:47.360Z,6.10
2024-03-26T08:56:23.675Z,5.10
2024-03-26T08:58:52.034Z,4.70
2024-03-26T09:01:18.226Z,5.80
2024-03-26T09:03:47.022Z,4.80
2024-03-26T09:06:13.457Z,4.20
2024-03-26T09:08:39.783Z,4.60
2024-03-26T09:11:06.395Z,4.50
2024-03-26T09:13:40.065Z,5.70
2024-03-26T09:16:07.722Z,4.90
2024-03-26T09:18:48.149Z,4.10
2024-03-26T09:23:40.570Z,4.80
2024-03-26T09:26:06.775Z,4.80
2024-03-26T09:28:36.122Z,5.00
2024-03-26T09:31:07.011Z,4.00
2024-03-26T09:33:33.973Z,5.40
2024-03-26T09:36:00.211Z,4.30
2024-03-26T09:38:39.555Z,6.80
2024-03-26T09:41:12.192Z,4.40
2024-03-26T09:43:38.758Z,3.40
2024-03-26T09:46:10.815Z,4.40
2024-03-26T09:48:37.859Z,3.40
2024-03-26T09:51:07.681Z,3.20
2024-03-26T09:53:34.080Z,3.00
2024-03-26T09:56:03.922Z,3.10
2024-03-26T09:58:30.103Z,2.90
2024-03-26T10:00:58.611Z,3.00
2024-03-26T10:03:29.078Z,3.30
2024-03-26T10:05:55.360Z,3.10
2024-03-26T10:08:21.738Z,2.90
2024-03-26T10:10:48.157Z,2.20
2024-03-26T10:13:14.217Z,2.50
2024-03-26T10:15:44.596Z,2.30
2024-03-26T10:18:11.054Z,2.20
2024-03-26T10:20:37.293Z,2.40
2024-03-26T10:23:09.289Z,1.70
2024-03-26T10:25:35.816Z,1.80
2024-03-26T10:28:03.364Z,1.50
2024-03-26T10:30:30.734Z,1.20
2024-03-26T10:33:01.211Z,1.60
2024-03-26T10:35:37.964Z,1.30
2024-03-26T10:38:17.039Z,1.50
2024-03-26T10:40:54.329Z,1.70
2024-03-26T10:43:22.464Z,0.90
2024-03-26T10:48:16.975Z,1.20
2024-03-26T10:50:43.554Z,1.30
2024-03-26T10:53:11.657Z,1.90
2024-03-26T10:55:38.085Z,0.90
2024-03-26T10:58:04.582Z,1.10
2024-03-26T11:00:33.413Z,1.70
2024-03-26T11:03:02.813Z,0.90
2024-03-26T11:05:31.812Z,0.90
2024-03-26T11:08:01.054Z,1.70
2024-03-26T11:10:27.260Z,1.00
2024-03-26T11:12:53.691Z,1.20
2024-03-26T11:15:28.697Z,0.90
2024-03-26T11:18:03.535Z,0.90
2024-03-26T11:20:42.193Z,0.90
2024-03-26T11:23:13.691Z,1.40
2024-03-26T11:25:40.161Z,1.00
2024-03-26T11:28:06.755Z,1.40
2024-03-26T11:30:34.414Z,1.30
2024-03-26T11:33:02.035Z,1.20
2024-03-26T11:35:30.240Z,1.50
2024-03-26T11:38:00.420Z,1.40
2024-03-26T11:40:29.743Z,1.20
2024-03-26T11:42:56.682Z,1.00
2024-03-26T11:45:25.476Z,1.10
2024-03-26T11:47:54.997Z,1.10
2024-03-26T11:50:21.491Z,1.70
2024-03-26T11:52:47.675Z,2.60
2024-03-26T11:55:14.437Z,1.10
2024-03-26T11:57:44.000Z,1.30
2024-03-26T12:00:14.484Z,1.20
2024-03-26T12:05:07.823Z,1.10
2024-03-26T12:07:36.314Z,0.80
2024-03-26T12:10:05.077Z,1.50
2024-03-26T12:12:39.508Z,1.30
2024-03-26T12:15:16.765Z,1.50
2024-03-26T12:17:46.290Z,1.40
2024-03-26T12:20:18.169Z,1.10
2024-03-26T12:22:48.405Z,1.40
2024-03-26T12:25:17.949Z,1.30
2024-03-26T12:27:51.737Z,1.20
2024-03-26T12:30:18.303Z,1.10
2024-03-26T12:32:54.513Z,1.10
2024-03-26T12:35:24.602Z,1.50
2024-03-26T12:40:21.316Z,1.40
2024-03-26T12:42:50.790Z,1.10
2024-03-26T12:45:20.571Z,1.40
2024-03-26T12:47:49.889Z,1.20
2024-03-26T12:50:36.639Z,1.10
2024-03-26T12:53:02.947Z,1.90
2024-03-26T12:55:29.257Z,0.90
2024-03-26T12:57:58.064Z,0.90
2024-03-26T13:00:25.000Z,1.20
2024-03-26T13:02:53.456Z,2.30
2024-03-26T13:05:21.712Z,0.80
2024-03-26T13:07:49.668Z,1.50
2024-03-26T13:10:16.922Z,0.60
2024-03-26T13:12:43.123Z,1.10
2024-03-26T13:15:09.573Z,0.70
2024-03-26T13:17:38.363Z,0.60
2024-03-26T13:20:20.571Z,1.10
2024-03-26T13:22:47.894Z,0.60
2024-03-26T13:25:17.790Z,0.80
2024-03-26T13:27:50.123Z,1.10
2024-03-26T13:30:30.602Z,0.80
2024-03-26T13:33:06.072Z,0.80
2024-03-26T13:35:32.720Z,1.50
2024-03-26T13:37:58.960Z,1.00
2024-03-26T13:40:41.217Z,1.10
2024-03-26T13:43:16.997Z,0.70
2024-03-26T13:45:43.355Z,0.80
2024-03-26T13:48:13.492Z,0.70
2024-03-26T13:50:43.830Z,1.10
2024-03-26T13:53:14.733Z,0.80
2024-03-26T13:55:41.760Z,1.00
2024-03-26T13:58:10.970Z,1.30
2024-03-26T14:00:40.641Z,0.70
2024-03-26T14:03:10.227Z,1.00
2024-03-26T14:05:36.665Z,1.00
2024-03-26T14:08:03.429Z,0.80
2024-03-26T14:10:32.192Z,1.20
2024-03-26T14:13:06.865Z,1.60
2024-03-26T14:15:33.038Z,3.50
2024-03-26T14:17:59.595Z,1.70
2024-03-26T14:20:46.228Z,2.60
2024-03-26T14:23:16.635Z,3.00
2024-03-26T14:25:46.179Z,1.70
2024-03-26T14:28:18.944Z,7.80
2024-03-26T14:30:46.225Z,4.90
2024-03-26T14:33:12.460Z,5.90
2024-03-26T14:35:44.875Z,2.30
2024-03-26T14:38:12.757Z,1.60
2024-03-26T14:40:42.221Z,1.80
2024-03-26T14:43:11.093Z,1.30
2024-03-26T14:45:38.683Z,2.10
2024-03-26T14:48:07.571Z,1.60
2024-03-26T14:50:33.821Z,1.40
2024-03-26T14:52:59.941Z,2.10
2024-03-26T14:55:32.314Z,1.70
2024-03-26T14:57:59.948Z,1.60
2024-03-26T15:00:29.995Z,1.60
2024-03-26T15:02:56.202Z,1.70
2024-03-26T15:05:23.049Z,1.70
2024-03-26T15:07:52.103Z,1.60
2024-03-26T15:10:19.167Z,2.90
2024-03-26T15:12:45.417Z,6.40
2024-03-26T15:15:12.125Z,7.50
2024-03-26T15:17:38.541Z,4.10
2024-03-26T15:20:05.492Z,1.50
2024-03-26T15:22:32.639Z,1.30
2024-03-26T15:25:01.877Z,2.00
2024-03-26T15:27:28.119Z,1.80
2024-03-26T15:30:13.302Z,2.40
2024-03-26T15:32:47.516Z,2.20
2024-03-26T15:35:15.343Z,1.90
2024-03-26T15:37:42.174Z,2.00
2024-03-26T15:40:09.420Z,2.30
2024-03-26T15:42:37.205Z,2.30
2024-03-26T15:45:03.965Z,1.20
2024-03-26T15:47:30.572Z,1.60
2024-03-26T15:49:59.110Z,1.70
2024-03-26T15:52:28.275Z,1.70
2024-03-26T15:54:56.853Z,2.70
2024-03-26T15:57:25.380Z,2.10
2024-03-26T15:59:54.651Z,2.50
2024-03-26T16:02:22.283Z,2.40
2024-03-26T16:05:12.224Z,2.50
2024-03-26T16:07:38.800Z,2.70
2024-03-26T16:10:15.120Z,4.00
2024-03-26T16:12:51.000Z,2.70
2024-03-26T16:15:18.182Z,2.50
2024-03-26T16:17:50.253Z,4.10
2024-03-26T16:20:22.335Z,3.30
2024-03-26T16:22:48.635Z,3.10
2024-03-26T16:25:15.291Z,2.60
2024-03-26T16:27:42.821Z,3.20
2024-03-26T16:30:17.923Z,3.20
2024-03-26T16:32:46.604Z,2.50
2024-03-26T16:35:12.903Z,3.10
2024-03-26T16:37:39.382Z,5.40
2024-03-26T16:40:07.670Z,4.10
2024-03-26T16:42:49.502Z,6.80
2024-03-26T16:45:16.611Z,8.30
2024-03-26T16:47:42.974Z,5.70
2024-03-26T16:50:12.328Z,5.40
2024-03-26T16:52:39.162Z,5.50
2024-03-26T16:55:07.099Z,5.90
2024-03-26T16:57:33.516Z,5.60
2024-03-26T16:59:59.633Z,4.80
2024-03-26T17:02:30.853Z,4.60
2024-03-26T17:05:03.632Z,3.90
2024-03-26T17:07:30.043Z,3.70
2024-03-26T17:10:09.360Z,3.30
2024-03-26T17:12:36.109Z,4.40
2024-03-26T17:15:05.249Z,4.40
2024-03-26T17:17:36.459Z,3.20
2024-03-26T17:20:03.233Z,2.00
2024-03-26T17:22:29.869Z,3.00
2024-03-26T17:25:10.884Z,3.70
2024-03-26T17:27:40.324Z,2.50
2024-03-26T17:33:02.286Z,1.90
2024-03-26T17:35:41.564Z,2.70
2024-03-26T17:38:15.956Z,2.60
2024-03-26T17:40:55.404Z,2.10
2024-03-26T17:43:26.682Z,2.70
2024-03-26T17:45:53.254Z,3.30
2024-03-26T17:48:27.042Z,7.30
2024-03-26T17:51:12.112Z,5.30
2024-03-26T17:54:04.329Z,3.30
2024-03-26T17:56:43.725Z,2.20
2024-03-26T17:59:12.738Z,2.90
2024-03-26T18:02:09.746Z,2.10
2024-03-26T18:04:36.473Z,2.10
2024-03-26T18:07:07.977Z,2.70
2024-03-26T18:09:46.320Z,2.80
2024-03-26T18:12:12.723Z,2.50
2024-03-26T18:14:38.898Z,2.70
2024-03-26T18:17:05.398Z,3.70
2024-03-26T18:19:53.320Z,3.20
2024-03-26T18:22:22.662Z,3.10
2024-03-26T18:24:51.127Z,2.60
2024-03-26T18:27:21.158Z,2.30
2024-03-26T18:29:54.922Z,2.80
2024-03-26T18:32:32.801Z,2.40
2024-03-26T18:35:12.549Z,3.00
2024-03-26T18:37:39.403Z,2.60
2024-03-26T18:40:06.957Z,2.60
2024-03-26T18:42:33.435Z,2.10
2024-03-26T18:44:59.824Z,2.50
2024-03-26T18:47:33.927Z,2.50
2024-03-26T18:50:07.626Z,2.50
2024-03-26T18:52:34.306Z,1.60
2024-03-26T18:55:01.323Z,2.40
2024-03-26T18:57:34.455Z,2.00
2024-03-26T19:00:04.558Z,3.00
2024-03-26T19:02:31.784Z,3.00
2024-03-26T19:05:01.115Z,2.00
2024-03-26T19:07:27.984Z,3.80
2024-03-26T19:09:58.967Z,8.70
2024-03-26T19:12:27.386Z,13.00
2024-03-26T19:14:56.278Z,8.50
2024-03-26T19:17:23.095Z,11.50
2024-03-26T19:19:49.574Z,7.80
2024-03-26T19:22:23.553Z,9.00
2024-03-26T19:24:52.441Z,9.40
2024-03-26T19:27:18.637Z,8.80
2024-03-26T19:29:49.419Z,6.00
2024-03-26T19:32:15.814Z,7.90
2024-03-26T19:34:51.642Z,8.30
2024-03-26T19:37:17.865Z,7.60
2024-03-26T19:39:44.317Z,6.20
2024-03-26T19:42:10.723Z,6.40
2024-03-26T19:44:39.758Z,5.40
2024-03-26T19:47:05.957Z,5.00
2024-03-26T19:49:36.235Z,6.40
2024-03-26T19:52:02.688Z,6.00
2024-03-26T19:54:29.085Z,5.50
2024-03-26T19:56:55.195Z,5.10
2024-03-26T19:59:21.443Z,5.10
2024-03-26T20:01:47.651Z,4.30
2024-03-26T20:04:13.831Z,6.30
2024-03-26T20:06:40.084Z,5.60
2024-03-26T20:09:08.412Z,5.10
2024-03-26T20:11:34.583Z,4.70
2024-03-26T20:14:00.805Z,5.50
2024-03-26T20:16:27.044Z,5.90
2024-03-26T20:18:53.217Z,7.30
2024-03-26T20:21:19.361Z,5.70
2024-03-26T20:23:52.942Z,4.70
2024-03-26T20:26:22.268Z,5.80
2024-03-26T20:28:48.647Z,6.20
2024-03-26T20:31:16.668Z,4.90
2024-03-26T20:33:44.216Z,6.60
2024-03-26T20:36:16.904Z,6.60
2024-03-26T20:38:44.560Z,5.70
2024-03-26T20:41:11.147Z,5.10
2024-03-26T20:43:40.794Z,4.50
2024-03-26T20:46:09.562Z,4.30
2024-03-26T20:48:35.719Z,4.60
2024-03-26T20:51:12.559Z,4.40
2024-03-26T20:53:40.187Z,3.60
2024-03-26T20:56:23.132Z,3.60
2024-03-26T20:58:59.772Z,4.80
2024-03-26T21:01:26.103Z,7.00
2024-03-26T21:03:52.277Z,11.00
2024-03-26T21:06:18.511Z,10.20
2024-03-26T21:08:44.758Z,13.70
2024-03-26T21:11:12.976Z,10.70
2024-03-26T21:13:40.594Z,12.50
2024-03-26T21:16:11.552Z,9.40
2024-03-26T21:18:48.245Z,8.90
2024-03-26T21:21:22.192Z,8.30
2024-03-26T21:23:48.370Z,8.90
2024-03-26T21:26:18.517Z,8.80
2024-03-26T21:31:15.793Z,8.40
2024-03-26T21:33:41.862Z,9.00
2024-03-26T21:36:07.980Z,8.50
2024-03-26T21:38:37.051Z,8.20
2024-03-26T21:41:05.607Z,9.20
2024-03-26T21:43:33.325Z,8.60
2024-03-26T21:46:02.645Z,7.40
2024-03-26T21:48:28.722Z,8.50
2024-03-26T21:50:59.474Z,9.60
2024-03-26T21:53:28.614Z,8.80
2024-03-26T21:56:05.170Z,7.70
2024-03-26T21:58:31.427Z,10.80
2024-03-26T22:01:04.425Z,11.90
2024-03-26T22:03:32.294Z,14.60
2024-03-26T22:05:58.747Z,14.20
2024-03-26T22:08:26.748Z,15.00
2024-03-26T22:10:53.806Z,14.30
2024-03-26T22:13:19.990Z,12.40
2024-03-26T22:15:46.116Z,13.00
2024-03-26T22:18:12.279Z,12.70
2024-03-26T22:20:38.483Z,11.80
2024-03-26T22:23:04.836Z,12.10
2024-03-26T22:25:30.976Z,10.70
2024-03-26T22:27:57.484Z,11.80
2024-03-26T22:30:24.000Z,11.00
2024-03-26T22:32:50.140Z,9.70
2024-03-26T22:35:16.871Z,10.20
2024-03-26T22:37:44.757Z,19.40
2024-03-26T22:40:12.281Z,14.40
2024-03-26T22:42:39.147Z,12.60
2024-03-26T22:45:07.535Z,12.50
2024-03-26T22:47:33.944Z,11.40
2024-03-26T22:50:00.063Z,9.90
2024-03-26T22:52:26.297Z,11.00
2024-03-26T22:54:52.380Z,10.60
2024-03-26T22:57:18.497Z,10.50
2024-03-26T22:59:47.140Z,10.70
2024-03-26T23:02:13.318Z,10.00
2024-03-26T23:04:39.457Z,10.00
2024-03-26T23:07:05.623Z,11.40
2024-03-26T23:09:31.681Z,10.20
2024-03-26T23:11:58.068Z,10.90
2024-03-26T23:14:24.184Z,12.30
2024-03-26T23:16:50.639Z,10.50
2024-03-26T23:19:16.697Z,10.30
2024-03-26T23:21:43.019Z,10.30
2024-03-26T23:24:09.788Z,10.80
2024-03-26T23:26:35.888Z,10.10
2024-03-26T23:29:02.047Z,11.40
2024-03-26T23:31:28.346Z,9.90
2024-03-26T23:33:54.492Z,11.30
2024-03-26T23:36:20.624Z,11.20
2024-03-26T23:38:46.737Z,11.10
2024-03-26T23:41:12.985Z,10.40
2024-03-26T23:43:39.110Z,13.00
2024-03-26T23:46:05.337Z,11.40
2024-03-26T23:48:31.506Z,12.40
2024-03-26T23:50:57.870Z,13.40
2024-03-26T23:53:24.160Z,14.20
2024-03-26T23:55:53.492Z,14.20
2024-03-26T23:58:19.613Z,15.50
